Arnots Addition, Pennsylvania
Current Conditions -  °F | °C
As of 6:15 AM on Wednesday 22 Oct 2014 (Local Time) from KHZL Reporting Station
Overcast Overcast  
Wind Chill: 10°   Ceiling: 500
Heat Index: 10°   Visibility: 10mi
Dew Point:   Wind: 7mph
Humidity: 87%   Direction: 360°N
Pressure: 29.97"   Gusts: NA
Location:  40.7406°N, 76.2241°W
Report Text: KHZL 221015Z AUTO 36006KT 10SM OVC005 10/08 A2997 RMK AO2 LTG DSNT SE
Loading
Personal Weather Stations






























Interactive Weather Map
Tropical Storm Tracking
New forecast layout! Learn more

10-Day Weather Forecast

Advertisements
Track Severe Weather on mobile